RJFRRJFK

Guest
Details From RJFR - NEW KITAKYUSHU
To RJFK - KAGOSHIMA
Flight Number -
Tags generated
Created
Modified
Stats Distance 124 nm / 229 km
Max Altitude 12,800 ft / 3,901 m
Waypoints 3
Social Downloads 2
Likes 0
Share VATSIM

Download

Looking for another format? Having issues loading an existing format? Contact us
Advertisement - Login to hide

Notes

Basic altitude profile: - Ascent Rate: 2500ft/min - Ascent Speed: 250kts - Cruise Altitude: 35000ft - Cruise Speed: 420kts - Descent Rate: 1500ft/min - Descent Speed: 250kts Options: - Use NATs: yes - Use PACOTS: yes - Use low airways: yes - Use high airways: yes

Route

RJFR TUJUN RJFK

ID Type Via Altitude Latitude Longitude Leg Dist Tot Dist Heading (true) Name
O RJFR APT - 0 ft / 0 m 33.84594˚ 131.03469˚ - 0 nm - NEW KITAKYUSHU
TUJUN FIX - 12,800 ft / 3,901 m 32.86618˚ 130.91152˚ 59 nm 59 nm 186° / 186° -
O RJFK APT - 0 ft / 0 m 31.80340˚ 130.71941˚ 64 nm 123 nm 189° / 189° KAGOSHIMA

Altitude Profile

Advertisement - Login to hide

RJFR

Details ICAO RJFR (KKJ)
Name NEW KITAKYUSHU
Region Japan
Timezone Asia/Tokyo (UTC+9.0)
Stats Elevation 21 ft / 6 m (AMSL)
Location 33.845940° 131.034689°
Runways 1
Magnetic Variation 7.535° W

METAR

RJFR 180100Z 24008KT 9999 FEW030 BKN045 06/M04 Q1029

Decode

TAF

TAF TAF RJFR 172308Z 1800/1906 29010KT 9999 FEW030 BKN040 BECMG 1808/1810 21009KT BECMG 1900/1903 32017KT

Decode

Departure Runways

ID Width Length Bearing (true) Bearing (mag) Surface Threshold Offset Overrun Length
18 260 ft / 79 m 8,625 ft / 2,629 m 170.36° 177.90° Asphalt 0 ft / 0 m 0 ft / 0 m
36 260 ft / 79 m 8,625 ft / 2,629 m 350.36° 357.90° Asphalt 0 ft / 0 m 0 ft / 0 m

RJFK

Details ICAO RJFK (KOJ)
Name KAGOSHIMA
Region Japan
Timezone Asia/Tokyo (UTC+9.0)
Stats Elevation 906 ft / 276 m (AMSL)
Location 31.803400° 130.719405°
Runways 1
Magnetic Variation 6.912° W

METAR

RJFK 180100Z 34011KT 9999 FEW040 05/M04 Q1027 RMK 1SC040 A3035

Decode

TAF

TAF RJFK 172305Z 1800/1906 32008KT 9999 FEW040

Decode

Destination Runways

ID Width Length Bearing (true) Bearing (mag) Surface Threshold Offset Overrun Length
16 150 ft / 46 m 9,861 ft / 3,006 m 150.11° 157.02° Asphalt 0 ft / 0 m 200 ft / 61 m
34 150 ft / 46 m 9,861 ft / 3,006 m 330.11° 337.02° Asphalt 0 ft / 0 m 200 ft / 61 m

Approach Navaids

Runway Type Ident Frequency Range Bearing (true) Bearing (mag) Slope Elevation
34 Localiser IKG 111.70 MHz 18 nm / 33 km 330.11° 337.02° - 906 ft / 276 m (AMSL)
34 Glidescope IKG 111.70 MHz 10 nm / 19 km 330.11° 337.02° 3.00° 906 ft / 276 m (AMSL)

Popular Alternatives